createdAt,value
2018-06-21T00:03:00.147Z,76.88
2018-06-21T00:08:02.298Z,77.22
2018-06-21T00:13:04.572Z,77.29
2018-06-21T00:18:06.735Z,77.52
2018-06-21T00:23:08.863Z,77.75
2018-06-21T00:28:11.234Z,77.18
2018-06-21T00:33:13.383Z,77.20
2018-06-21T00:38:15.519Z,77.63
2018-06-21T00:43:17.702Z,77.36
2018-06-21T00:48:19.861Z,77.77
2018-06-21T00:53:21.986Z,77.91
2018-06-21T00:58:24.115Z,78.73
2018-06-21T01:03:26.256Z,78.35
2018-06-21T01:08:28.388Z,78.07
2018-06-21T01:13:30.547Z,77.68
2018-06-21T01:18:32.694Z,77.65
2018-06-21T01:23:34.846Z,78.05
2018-06-21T01:28:36.961Z,77.79
2018-06-21T01:33:39.098Z,78.12
2018-06-21T01:38:41.236Z,78.08
2018-06-21T01:43:43.408Z,77.84
2018-06-21T01:48:45.559Z,77.83
2018-06-21T01:53:47.733Z,77.79
2018-06-21T01:58:49.894Z,78.70
2018-06-21T02:03:52.081Z,78.00
2018-06-21T02:08:54.191Z,78.95
2018-06-21T02:13:56.311Z,79.01
2018-06-21T02:18:58.443Z,77.70
2018-06-21T02:24:00.556Z,78.81
2018-06-21T02:29:02.724Z,77.93
2018-06-21T02:34:04.984Z,78.08
2018-06-21T02:39:07.790Z,78.75
2018-06-21T02:44:09.917Z,78.25
2018-06-21T02:49:12.076Z,78.14
2018-06-21T02:54:14.208Z,75.42
2018-06-21T02:59:16.322Z,77.57
2018-06-21T03:04:18.492Z,77.29
2018-06-21T03:09:20.637Z,77.07
2018-06-21T03:14:22.787Z,76.44
2018-06-21T03:19:24.907Z,76.74
2018-06-21T03:24:27.027Z,76.12
2018-06-21T03:29:29.143Z,75.92
2018-06-21T03:34:31.262Z,75.73
2018-06-21T03:39:33.401Z,75.28
2018-06-21T03:44:35.547Z,75.50
2018-06-21T03:49:37.668Z,75.25
2018-06-21T03:54:39.778Z,71.91
2018-06-21T03:59:41.907Z,72.06
2018-06-21T04:04:44.046Z,72.23
2018-06-21T04:09:46.172Z,71.70
2018-06-21T04:14:48.299Z,69.34
2018-06-21T04:19:50.535Z,71.60
2018-06-21T04:24:52.648Z,69.77
2018-06-21T04:29:54.762Z,70.23
2018-06-21T04:34:56.918Z,70.36
2018-06-21T04:39:59.057Z,71.75
2018-06-21T04:45:01.240Z,70.79
2018-06-21T04:50:03.460Z,71.04
2018-06-21T04:55:05.594Z,69.35
2018-06-21T05:00:07.776Z,70.40
2018-06-21T05:05:09.882Z,68.24
2018-06-21T05:10:12.030Z,67.75
2018-06-21T05:15:14.144Z,70.19
2018-06-21T05:20:16.263Z,68.43
2018-06-21T05:25:18.647Z,69.68
2018-06-21T05:30:20.792Z,67.50
2018-06-21T05:35:22.943Z,69.42
2018-06-21T05:40:36.460Z,70.42
2018-06-21T05:45:38.580Z,69.28
2018-06-21T05:50:40.745Z,68.74
2018-06-21T05:55:42.865Z,69.35
2018-06-21T06:00:45.035Z,69.47
2018-06-21T06:05:47.188Z,67.25
2018-06-21T06:10:49.349Z,67.45
2018-06-21T06:15:51.487Z,67.72
2018-06-21T06:20:53.610Z,67.20
2018-06-21T06:25:55.726Z,68.52
2018-06-21T06:30:58.110Z,63.18
2018-06-21T06:36:00.247Z,65.71
2018-06-21T06:41:02.415Z,66.49
2018-06-21T06:46:04.564Z,63.56
2018-06-21T06:51:06.702Z,66.43
2018-06-21T06:56:08.811Z,66.42
2018-06-21T07:01:10.950Z,64.20
2018-06-21T07:06:13.083Z,64.65
2018-06-21T07:11:15.645Z,63.18
2018-06-21T07:16:17.789Z,64.95
2018-06-21T07:21:19.941Z,64.78
2018-06-21T07:26:22.090Z,65.98
2018-06-21T07:31:24.223Z,64.37
2018-06-21T07:36:26.351Z,65.09
2018-06-21T07:41:28.503Z,64.13
2018-06-21T07:46:30.927Z,65.29
2018-06-21T07:51:33.070Z,63.48
2018-06-21T07:56:35.191Z,63.97
2018-06-21T08:01:37.323Z,60.73
2018-06-21T08:06:39.533Z,64.35
2018-06-21T08:11:41.823Z,63.02
2018-06-21T08:16:44.416Z,61.85
2018-06-21T08:21:46.551Z,61.88
2018-06-21T08:26:48.745Z,62.23
2018-06-21T08:31:50.847Z,58.99
2018-06-21T08:36:52.981Z,58.48
2018-06-21T08:41:55.107Z,56.21
2018-06-21T08:46:57.254Z,58.11
2018-06-21T08:51:59.439Z,56.85
2018-06-21T08:57:01.546Z,58.55
2018-06-21T09:02:03.706Z,58.62
2018-06-21T09:07:05.860Z,59.99
2018-06-21T09:12:08.018Z,61.12
2018-06-21T09:17:10.143Z,59.62
2018-06-21T09:22:12.282Z,59.67
2018-06-21T09:27:14.395Z,60.25
2018-06-21T09:32:16.560Z,59.55
2018-06-21T09:37:24.552Z,59.45
2018-06-21T09:42:32.449Z,59.77
2018-06-21T09:47:40.496Z,61.43
2018-06-21T09:52:42.675Z,60.83
2018-06-21T09:57:44.859Z,56.32
2018-06-21T10:02:47.817Z,56.92
2018-06-21T10:07:50.035Z,58.35
2018-06-21T10:12:52.165Z,58.13
2018-06-21T10:17:57.557Z,58.38
2018-06-21T10:22:59.757Z,60.64
2018-06-21T10:28:01.862Z,62.88
2018-06-21T10:33:04.051Z,68.22
2018-06-21T10:38:06.432Z,70.15
2018-06-21T10:43:08.599Z,71.58
2018-06-21T10:48:10.729Z,73.08
2018-06-21T10:53:12.854Z,72.05
2018-06-21T10:58:14.969Z,71.76
2018-06-21T11:03:17.267Z,73.69
2018-06-21T11:08:19.447Z,73.19
2018-06-21T11:13:21.559Z,72.18
2018-06-21T11:18:23.693Z,73.19
2018-06-21T11:23:25.830Z,74.98
2018-06-21T11:28:27.976Z,72.91
2018-06-21T11:33:30.109Z,73.86
2018-06-21T11:38:32.212Z,70.39
2018-06-21T11:43:34.420Z,69.15
2018-06-21T11:48:36.706Z,69.40
2018-06-21T11:53:38.844Z,70.65
2018-06-21T11:58:41.020Z,67.10
2018-06-21T12:03:43.147Z,66.76
2018-06-21T12:08:45.390Z,64.64
2018-06-21T12:13:47.537Z,63.87
2018-06-21T12:18:49.664Z,63.92
2018-06-21T12:23:51.795Z,62.99
2018-06-21T12:28:53.921Z,66.01
2018-06-21T12:33:56.078Z,64.56
2018-06-21T12:38:58.212Z,67.74
2018-06-21T12:44:00.403Z,66.59
2018-06-21T12:49:02.567Z,67.23
2018-06-21T12:54:04.719Z,69.39
2018-06-21T12:59:06.855Z,69.55
2018-06-21T13:04:08.990Z,73.54
2018-06-21T13:10:25.886Z,72.81
2018-06-21T13:15:28.114Z,72.36
2018-06-21T13:20:30.200Z,73.11
2018-06-21T13:25:32.376Z,71.95
2018-06-21T13:30:34.537Z,72.75
2018-06-21T13:35:36.777Z,71.83
2018-06-21T13:40:38.971Z,73.73
2018-06-21T13:45:41.156Z,71.23
2018-06-21T13:50:43.307Z,74.01
2018-06-21T13:55:45.457Z,70.97
2018-06-21T14:00:47.628Z,69.66
2018-06-21T14:05:49.763Z,70.57
2018-06-21T14:10:51.964Z,67.91
2018-06-21T14:15:54.143Z,69.09
2018-06-21T14:20:56.333Z,65.27
2018-06-21T14:25:58.480Z,59.71
2018-06-21T14:31:00.632Z,62.21
2018-06-21T14:36:02.808Z,65.41
2018-06-21T14:41:05.005Z,65.59
2018-06-21T14:46:07.223Z,67.89
2018-06-21T14:51:09.496Z,66.49
2018-06-21T14:56:11.867Z,67.64
2018-06-21T15:01:14.016Z,67.09
2018-06-21T15:06:16.158Z,67.57
2018-06-21T15:11:18.371Z,69.48
2018-06-21T15:16:21.775Z,70.90
2018-06-21T15:21:23.965Z,71.71
2018-06-21T15:26:26.180Z,71.16
2018-06-21T15:31:28.578Z,71.44
2018-06-21T15:36:30.745Z,71.33
2018-06-21T15:41:32.970Z,69.49
2018-06-21T15:46:35.218Z,69.12
2018-06-21T15:51:37.459Z,61.54
2018-06-21T15:56:39.580Z,57.79
2018-06-21T16:01:42.008Z,56.22
2018-06-21T16:06:44.198Z,60.89
2018-06-21T16:11:46.419Z,62.99
2018-06-21T16:16:48.585Z,58.23
2018-06-21T16:21:51.120Z,56.19
2018-06-21T16:26:53.384Z,56.93
2018-06-21T16:31:55.587Z,59.35
2018-06-21T16:36:57.786Z,58.13
2018-06-21T16:41:59.934Z,55.34
2018-06-21T16:47:02.180Z,53.00
2018-06-21T16:52:04.389Z,54.83
2018-06-21T16:57:06.851Z,57.70
2018-06-21T17:02:09.037Z,58.28
2018-06-21T17:07:11.186Z,60.76
2018-06-21T17:12:13.584Z,58.42
2018-06-21T17:17:15.725Z,60.10
2018-06-21T17:22:17.931Z,60.58
2018-06-21T17:27:20.107Z,57.04
2018-06-21T17:32:22.288Z,56.00
2018-06-21T17:37:24.785Z,55.33
2018-06-21T17:42:27.179Z,57.40
2018-06-21T17:47:29.364Z,56.05
2018-06-21T17:52:31.521Z,55.04
2018-06-21T17:57:33.688Z,54.34
2018-06-21T18:02:35.859Z,55.57
2018-06-21T18:07:38.060Z,54.72
2018-06-21T18:12:40.312Z,55.98
2018-06-21T18:17:42.528Z,55.53
2018-06-21T18:22:44.717Z,55.48
2018-06-21T18:27:46.915Z,55.47
2018-06-21T18:32:49.098Z,57.37
2018-06-21T18:37:51.521Z,56.09
2018-06-21T18:42:53.755Z,56.75
2018-06-21T18:47:55.955Z,57.30
2018-06-21T18:52:58.173Z,57.79
2018-06-21T18:58:00.376Z,57.73
2018-06-21T19:03:02.584Z,56.93
2018-06-21T19:08:10.314Z,57.38
2018-06-21T19:13:12.502Z,57.47
2018-06-21T19:18:14.685Z,58.46
2018-06-21T19:23:16.889Z,58.85
2018-06-21T19:28:19.074Z,60.28
2018-06-21T19:33:21.296Z,60.29
2018-06-21T19:38:23.551Z,59.79
2018-06-21T19:43:25.765Z,60.93
2018-06-21T19:48:28.009Z,61.01
2018-06-21T19:53:30.225Z,61.39
2018-06-21T19:58:32.443Z,62.50
2018-06-21T20:03:34.669Z,63.10
2018-06-21T20:08:36.852Z,64.34
2018-06-21T20:13:43.113Z,64.80
2018-06-21T20:18:45.514Z,65.54
2018-06-21T20:23:48.878Z,66.03
2018-06-21T20:28:51.054Z,66.49
2018-06-21T20:33:53.180Z,66.60
2018-06-21T20:38:55.451Z,66.93
2018-06-21T20:43:57.690Z,66.63
2018-06-21T20:48:59.910Z,67.15
2018-06-21T20:54:02.057Z,67.48
2018-06-21T20:59:04.319Z,68.13
2018-06-21T21:04:06.528Z,68.21
2018-06-21T21:09:08.899Z,68.26
2018-06-21T21:14:11.254Z,68.09
2018-06-21T21:19:13.433Z,67.43
2018-06-21T21:24:15.604Z,68.53
2018-06-21T21:29:17.796Z,68.94
2018-06-21T21:34:20.020Z,68.66
2018-06-21T21:39:22.240Z,68.01
2018-06-21T21:44:24.407Z,68.54
2018-06-21T21:49:26.572Z,68.36
2018-06-21T21:54:28.751Z,68.86
2018-06-21T21:59:30.928Z,68.29
2018-06-21T22:04:33.083Z,67.92
2018-06-21T22:09:35.237Z,68.16
2018-06-21T22:14:37.631Z,68.04
2018-06-21T22:19:39.844Z,68.92
2018-06-21T22:24:41.996Z,68.21
2018-06-21T22:29:44.176Z,68.78
2018-06-21T22:34:46.318Z,67.86
2018-06-21T22:39:48.478Z,67.82
2018-06-21T22:44:50.705Z,67.83
2018-06-21T22:49:52.839Z,67.25
2018-06-21T22:54:55.020Z,68.00
2018-06-21T22:59:57.198Z,69.06
2018-06-21T23:04:59.361Z,69.41
2018-06-21T23:10:01.529Z,69.59
2018-06-21T23:15:03.774Z,69.69
2018-06-21T23:20:05.928Z,70.03
2018-06-21T23:25:08.087Z,70.70
2018-06-21T23:30:10.246Z,70.15
2018-06-21T23:35:12.371Z,70.58
2018-06-21T23:40:14.520Z,70.80
2018-06-21T23:45:16.674Z,71.14
2018-06-21T23:50:18.809Z,71.64
2018-06-21T23:55:20.927Z,71.77
